Time;durP1;ratioP1;P1;durP2;ratioP2;P2;SDS_P1;SDS_P2;PMS_P1;PMS_P2;Temp;Humidity;BMP_temperature;BMP_pressure;BME280_temperature;BME280_humidity;BME280_pressure;Samples;Min_cycle;Max_cycle;Signal;HPM_P1;HPM_P2
2020/12/16 00:00:17;;;;;;;;;;;;;;;;;;5077892;28;20007;-89
2020/12/16 00:02:44;;;;;;;;;;;;;;;;;;5080583;28;19970;-88
2020/12/16 00:05:11;;;;;;;;;;;;;;;;;;5076825;28;20335;-88
2020/12/16 00:07:38;;;;;;;;;;;;;;;;;;5078604;28;19932;-89
2020/12/16 00:10:05;;;;;;;;;;;;;;;;;;5090964;28;19970;-88
2020/12/16 00:12:32;;;;;;;;;;;;;;;;;;5083379;28;19928;-88
2020/12/16 00:14:59;;;;;;;;;;;;;;;;;;5081476;28;20014;-89
2020/12/16 00:17:32;;;;;;;;;;;;;;;;;;5092640;28;19930;-89
2020/12/16 00:19:59;;;;;;;;;;;;;;;;;;5082838;28;20003;-88
2020/12/16 00:22:31;;;;;;;;;;;;;;;;;;5075799;28;20387;-88
2020/12/16 00:24:58;;;;;;;;;;;;;;;;;;5092282;28;20015;-88
2020/12/16 00:27:25;;;;;;;;;;;;;;;;;;5088229;28;19925;-88
2020/12/16 00:29:52;;;;;;;;;;;;;;;;;;5076198;28;19951;-88
2020/12/16 00:32:19;;;;;;;;;;;;;;;;;;5078962;28;19924;-88
2020/12/16 00:34:47;;;;;;;;;;;;;;;;;;5086335;28;20019;-88
2020/12/16 00:37:14;;;;;;;;;;;;;;;;;;5077626;28;19938;-88
2020/12/16 00:39:41;;;;;;;;;;;;;;;;;;5092019;28;20432;-89
2020/12/16 00:42:08;;;;;;;;;;;;;;;;;;5076497;28;19925;-89
2020/12/16 00:44:38;;;;;;;;;;;;;;;;;;5094843;28;19924;-88
2020/12/16 00:47:05;;;;;;;;;;;;;;;;;;5086293;28;19933;-88
2020/12/16 00:49:32;;;;;;;;;;;;;;;;;;5083707;28;19924;-89
2020/12/16 00:52:00;;;;;;;;;;;;;;;;;;5095014;28;19934;-88
2020/12/16 00:54:28;;;;;;;;;;;;;;;;;;5092458;28;20348;-88
2020/12/16 00:56:55;;;;;;;;;;;;;;;;;;5092741;28;19930;-89
2020/12/16 00:59:22;;;;;;;;;;;;;;;;;;5084351;28;20007;-88
2020/12/16 01:01:49;;;;;;;;;;;;;;;;;;5086460;28;19964;-89
2020/12/16 01:04:16;;;;;;;;;;;;;;;;;;5084268;28;19974;-88
2020/12/16 01:06:44;;;;;;;;;;;;;;;;;;5083810;28;19942;-89
2020/12/16 01:09:11;;;;;;;;;;;;;;;;;;5088143;28;20015;-89
2020/12/16 01:11:38;;;;;;;;;;;;;;;;;;5090406;28;20018;-89
2020/12/16 01:14:08;;;;;;;;;;;;;;;;;;5083581;28;20309;-89
2020/12/16 01:16:35;;;;;;;;;;;;;;;;;;5075397;28;19925;-88
2020/12/16 01:19:03;;;;;;;;;;;;;;;;;;5075743;28;20011;-89
2020/12/16 01:21:30;;;;;;;;;;;;;;;;;;5074966;28;21419;-89
2020/12/16 01:23:57;;;;;;;;;;;;;;;;;;5075123;28;20026;-89
2020/12/16 01:26:24;;;;;;;;;;;;;;;;;;5085036;28;20031;-88
2020/12/16 01:28:52;;;;;;;;;;;;;;;;;;5085014;28;19924;-89
2020/12/16 01:31:19;;;;;;;;;;;;;;;;;;5088804;28;20001;-88
2020/12/16 01:33:46;;;;;;;;;;;;;;;;;;5085436;28;20350;-89
2020/12/16 01:36:13;;;;;;;;;;;;;;;;;;5075530;28;20330;-89
2020/12/16 01:38:40;;;;;;;;;;;;;;;;;;5078947;28;19975;-89
2020/12/16 01:41:08;;;;;;;;;;;;;;;;;;5074213;28;20023;-88
2020/12/16 01:43:35;;;;;;;;;;;;;;;;;;5085652;28;19974;-88
2020/12/16 01:46:02;;;;;;;;;;;;;;;;;;5076167;28;19991;-88
2020/12/16 01:48:30;;;;;;;;;;;;;;;;;;5082541;28;19971;-88
2020/12/16 01:50:57;;;;;;;;;;;;;;;;;;5085931;28;19928;-88
2020/12/16 01:53:27;;;;;;;;;;;;;;;;;;5083327;28;19975;-88
2020/12/16 01:55:55;;;;;;;;;;;;;;;;;;5076943;28;20399;-88
2020/12/16 01:58:22;;;;;;;;;;;;;;;;;;5074067;28;20012;-88
2020/12/16 02:00:49;;;;;;;;;;;;;;;;;;5075497;28;20019;-88
2020/12/16 02:03:16;;;;;;;;;;;;;;;;;;5085091;28;20435;-88
2020/12/16 02:05:44;;;;;;;;;;;;;;;;;;5074194;28;19928;-88
2020/12/16 02:08:11;;;;;;;;;;;;;;;;;;5075062;28;20267;-88
2020/12/16 02:10:38;;;;;;;;;;;;;;;;;;5090135;28;19976;-88
2020/12/16 02:13:06;;;;;;;;;;;;;;;;;;5073688;28;20383;-88
2020/12/16 02:15:33;;;;;;;;;;;;;;;;;;5073380;28;19968;-88
2020/12/16 02:18:01;;;;;;;;;;;;;;;;;;5074767;28;20393;-88
2020/12/16 02:20:28;;;;;;;;;;;;;;;;;;5090254;28;19982;-88
2020/12/16 02:22:55;;;;;;;;;;;;;;;;;;5087604;28;19934;-88
2020/12/16 02:25:22;;;;;;;;;;;;;;;;;;5080615;28;20290;-89
2020/12/16 02:27:49;;;;;;;;;;;;;;;;;;5072414;28;19979;-88
2020/12/16 02:30:17;;;;;;;;;;;;;;;;;;5084026;28;19928;-88
2020/12/16 02:32:44;;;;;;;;;;;;;;;;;;5084695;28;19928;-88
2020/12/16 02:35:11;;;;;;;;;;;;;;;;;;5080417;28;19924;-88
2020/12/16 02:37:39;;;;;;;;;;;;;;;;;;5073094;28;19935;-88
2020/12/16 02:40:06;;;;;;;;;;;;;;;;;;5075191;28;20032;-88
2020/12/16 02:42:33;;;;;;;;;;;;;;;;;;5075427;28;20011;-88
2020/12/16 02:45:00;;;;;;;;;;;;;;;;;;5084938;28;19924;-88
2020/12/16 02:47:27;;;;;;;;;;;;;;;;;;5083153;28;20007;-88
2020/12/16 02:49:55;;;;;;;;;;;;;;;;;;5078263;28;20410;-88
2020/12/16 02:52:22;;;;;;;;;;;;;;;;;;5084904;28;19986;-88
2020/12/16 02:54:49;;;;;;;;;;;;;;;;;;5074752;28;19978;-88
2020/12/16 02:57:16;;;;;;;;;;;;;;;;;;5080984;28;20019;-87
2020/12/16 02:59:43;;;;;;;;;;;;;;;;;;5078887;28;20000;-88
2020/12/16 03:02:10;;;;;;;;;;;;;;;;;;5085851;28;20469;-88
2020/12/16 03:04:38;;;;;;;;;;;;;;;;;;5088961;28;20405;-88
2020/12/16 03:07:05;;;;;;;;;;;;;;;;;;5075410;28;19925;-88
2020/12/16 03:09:32;;;;;;;;;;;;;;;;;;5077507;28;20251;-88
2020/12/16 03:11:59;;;;;;;;;;;;;;;;;;5088632;28;20042;-88
2020/12/16 03:14:26;;;;;;;;;;;;;;;;;;5075564;28;20019;-88
2020/12/16 03:16:53;;;;;;;;;;;;;;;;;;5083210;28;19977;-88
2020/12/16 03:19:21;;;;;;;;;;;;;;;;;;5091384;28;20071;-88
2020/12/16 03:21:48;;;;;;;;;;;;;;;;;;5084301;28;20488;-88
2020/12/16 03:24:19;;;;;;;;;;;;;;;;;;5083790;28;19924;-88
2020/12/16 03:26:46;;;;;;;;;;;;;;;;;;5075900;28;20367;-88
2020/12/16 03:29:14;;;;;;;;;;;;;;;;;;5057278;28;19974;-88
2020/12/16 03:31:41;;;;;;;;;;;;;;;;;;5081664;28;20031;-88
2020/12/16 03:34:08;;;;;;;;;;;;;;;;;;5091778;28;19924;-88
2020/12/16 03:36:36;;;;;;;;;;;;;;;;;;5076347;28;19925;-88
2020/12/16 03:39:03;;;;;;;;;;;;;;;;;;5078906;28;19928;-88
2020/12/16 03:41:30;;;;;;;;;;;;;;;;;;5074973;28;20385;-88
2020/12/16 03:43:57;;;;;;;;;;;;;;;;;;5086940;28;19932;-88
2020/12/16 03:46:25;;;;;;;;;;;;;;;;;;5077511;28;20019;-88
2020/12/16 03:48:52;;;;;;;;;;;;;;;;;;5086061;28;20024;-88
2020/12/16 03:51:19;;;;;;;;;;;;;;;;;;5087980;28;20463;-88
2020/12/16 03:53:46;;;;;;;;;;;;;;;;;;5075622;28;20023;-88
2020/12/16 03:56:13;;;;;;;;;;;;;;;;;;5075800;28;19978;-88
2020/12/16 03:58:40;;;;;;;;;;;;;;;;;;5082098;28;20019;-88
2020/12/16 04:01:08;;;;;;;;;;;;;;;;;;5074453;28;20039;-88
2020/12/16 04:03:35;;;;;;;;;;;;;;;;;;5077985;28;20015;-88
2020/12/16 04:06:02;;;;;;;;;;;;;;;;;;5087564;28;19971;-88
2020/12/16 04:08:30;;;;;;;;;;;;;;;;;;5088156;28;19935;-88
2020/12/16 04:10:57;;;;;;;;;;;;;;;;;;5086820;28;19928;-89
2020/12/16 04:13:24;;;;;;;;;;;;;;;;;;5089801;28;19940;-88
2020/12/16 04:15:51;;;;;;;;;;;;;;;;;;5074210;28;19931;-88
2020/12/16 04:18:18;;;;;;;;;;;;;;;;;;5076301;28;20054;-88
2020/12/16 04:20:45;;;;;;;;;;;;;;;;;;5077294;28;20362;-88
2020/12/16 04:23:13;;;;;;;;;;;;;;;;;;5075503;28;19972;-88
2020/12/16 04:25:40;;;;;;;;;;;;;;;;;;5075494;28;20011;-88
2020/12/16 04:28:07;;;;;;;;;;;;;;;;;;5074804;28;19964;-88
2020/12/16 04:30:49;;;;;;;;;;;;;;;;;;3195337;28;10001015;-88
2020/12/16 04:33:16;;;;;;;;;;;;;;;;;;2627972;28;10001443;-88
2020/12/16 04:35:43;;;;;;;;;;;;;;;;;;5082102;28;20016;-88
2020/12/16 04:38:10;;;;;;;;;;;;;;;;;;5074754;28;19971;-88
2020/12/16 04:40:37;;;;;;;;;;;;;;;;;;5074298;28;19972;-88
2020/12/16 04:43:05;;;;;;;;;;;;;;;;;;5078897;28;20014;-88
2020/12/16 04:45:33;;;;;;;;;;;;;;;;;;5080361;28;19959;-88
2020/12/16 04:48:00;;;;;;;;;;;;;;;;;;5088929;28;20295;-88
2020/12/16 04:50:27;;;;;;;;;;;;;;;;;;5074383;28;19938;-88
2020/12/16 04:52:54;;;;;;;;;;;;;;;;;;5075863;28;19924;-88
2020/12/16 04:55:22;;;;;;;;;;;;;;;;;;5077049;28;20015;-88
2020/12/16 04:57:49;;;;;;;;;;;;;;;;;;5075406;28;20446;-88
2020/12/16 05:00:16;;;;;;;;;;;;;;;;;;5076722;28;20480;-88
2020/12/16 05:02:43;;;;;;;;;;;;;;;;;;5082783;28;20047;-88
2020/12/16 05:05:10;;;;;;;;;;;;;;;;;;5087317;28;20284;-88
2020/12/16 05:07:37;;;;;;;;;;;;;;;;;;5088528;28;20102;-88
2020/12/16 05:10:04;;;;;;;;;;;;;;;;;;5088232;28;19928;-88
2020/12/16 05:12:32;;;;;;;;;;;;;;;;;;5074391;28;19956;-88
2020/12/16 05:14:59;;;;;;;;;;;;;;;;;;5087422;28;20023;-88
2020/12/16 05:17:26;;;;;;;;;;;;;;;;;;5079598;28;19928;-88
2020/12/16 05:19:53;;;;;;;;;;;;;;;;;;5090460;28;19964;-88
2020/12/16 05:22:20;;;;;;;;;;;;;;;;;;5086757;28;20317;-88
2020/12/16 05:24:47;;;;;;;;;;;;;;;;;;5073379;28;20027;-88
2020/12/16 05:27:14;;;;;;;;;;;;;;;;;;5077130;28;20387;-88
2020/12/16 05:29:41;;;;;;;;;;;;;;;;;;5084986;28;20019;-88
2020/12/16 05:32:09;;;;;;;;;;;;;;;;;;5077588;28;20560;-89
2020/12/16 05:34:36;;;;;;;;;;;;;;;;;;5087543;28;20340;-88
2020/12/16 05:37:03;;;;;;;;;;;;;;;;;;5085837;28;19975;-88
2020/12/16 05:39:30;;;;;;;;;;;;;;;;;;5073030;28;19959;-89
2020/12/16 05:41:57;;;;;;;;;;;;;;;;;;5075311;28;19950;-88
2020/12/16 05:44:25;;;;;;;;;;;;;;;;;;5078690;28;19992;-88
2020/12/16 05:46:52;;;;;;;;;;;;;;;;;;5073708;28;20015;-88
2020/12/16 05:49:19;;;;;;;;;;;;;;;;;;5072313;28;19925;-88
2020/12/16 05:51:46;;;;;;;;;;;;;;;;;;5075437;28;19925;-88
2020/12/16 05:54:13;;;;;;;;;;;;;;;;;;5077001;28;20015;-88
2020/12/16 05:56:41;;;;;;;;;;;;;;;;;;5081694;28;20011;-88
2020/12/16 05:59:08;;;;;;;;;;;;;;;;;;5083414;28;19982;-88
2020/12/16 06:01:35;;;;;;;;;;;;;;;;;;5088702;28;19947;-88
2020/12/16 06:04:02;;;;;;;;;;;;;;;;;;5078022;28;20022;-88
2020/12/16 06:06:30;;;;;;;;;;;;;;;;;;5078616;28;20015;-88
2020/12/16 06:08:57;;;;;;;;;;;;;;;;;;5093135;28;20383;-88
2020/12/16 06:11:24;;;;;;;;;;;;;;;;;;5072080;28;19924;-88
2020/12/16 06:13:51;;;;;;;;;;;;;;;;;;5073262;28;20043;-88
2020/12/16 06:16:18;;;;;;;;;;;;;;;;;;5075947;28;19961;-88
2020/12/16 06:18:47;;;;;;;;;;;;;;;;;;5077456;28;19986;-88
2020/12/16 06:21:14;;;;;;;;;;;;;;;;;;5072533;28;19924;-88
2020/12/16 06:23:41;;;;;;;;;;;;;;;;;;5083021;28;19924;-88
2020/12/16 06:26:09;;;;;;;;;;;;;;;;;;5083493;28;19981;-89
2020/12/16 06:28:36;;;;;;;;;;;;;;;;;;5077845;28;19992;-88
2020/12/16 06:31:04;;;;;;;;;;;;;;;;;;5072595;28;19952;-88
2020/12/16 06:33:31;;;;;;;;;;;;;;;;;;5077861;28;20031;-89
2020/12/16 06:35:58;;;;;;;;;;;;;;;;;;5071999;28;19968;-88
2020/12/16 06:38:25;;;;;;;;;;;;;;;;;;5071309;28;19933;-88
2020/12/16 06:40:52;;;;;;;;;;;;;;;;;;5079193;28;19988;-88
2020/12/16 06:43:19;;;;;;;;;;;;;;;;;;5075154;28;20355;-88
2020/12/16 06:45:46;;;;;;;;;;;;;;;;;;5071701;28;19968;-88
2020/12/16 06:48:14;;;;;;;;;;;;;;;;;;5085086;28;19924;-88
2020/12/16 06:50:41;;;;;;;;;;;;;;;;;;5083634;28;19924;-88
2020/12/16 06:53:08;;;;;;;;;;;;;;;;;;5079683;28;20018;-88
2020/12/16 06:55:35;;;;;;;;;;;;;;;;;;5075370;28;19975;-88
2020/12/16 06:58:02;;;;;;;;;;;;;;;;;;5091315;28;19962;-88
2020/12/16 07:00:30;;;;;;;;;;;;;;;;;;5084975;28;20015;-88
2020/12/16 07:02:57;;;;;;;;;;;;;;;;;;5090443;28;20242;-88
2020/12/16 07:05:24;;;;;;;;;;;;;;;;;;5072281;28;19931;-88
2020/12/16 07:07:51;;;;;;;;;;;;;;;;;;5077674;28;20020;-88
2020/12/16 07:10:18;;;;;;;;;;;;;;;;;;5079569;28;19925;-88
2020/12/16 07:12:46;;;;;;;;;;;;;;;;;;5071734;28;19928;-87
2020/12/16 07:15:13;;;;;;;;;;;;;;;;;;5076687;28;19940;-88
2020/12/16 07:17:40;;;;;;;;;;;;;;;;;;5092804;28;20428;-88
2020/12/16 07:20:07;;;;;;;;;;;;;;;;;;5077321;28;19928;-88
2020/12/16 07:22:34;;;;;;;;;;;;;;;;;;5074081;28;20023;-88
2020/12/16 07:25:02;;;;;;;;;;;;;;;;;;5075930;28;19928;-88
2020/12/16 07:27:29;;;;;;;;;;;;;;;;;;5074447;28;20444;-87
2020/12/16 07:29:56;;;;;;;;;;;;;;;;;;5092004;28;19924;-87
2020/12/16 07:32:23;;;;;;;;;;;;;;;;;;5091078;28;20424;-88
2020/12/16 07:34:50;;;;;;;;;;;;;;;;;;5086387;28;20007;-88
2020/12/16 07:37:18;;;;;;;;;;;;;;;;;;5085068;28;19928;-88
2020/12/16 07:39:45;;;;;;;;;;;;;;;;;;5072265;28;19924;-88
2020/12/16 07:42:12;;;;;;;;;;;;;;;;;;5072513;28;19932;-88
2020/12/16 07:44:40;;;;;;;;;;;;;;;;;;5090067;28;20276;-88
2020/12/16 07:47:07;;;;;;;;;;;;;;;;;;5082387;28;20387;-88
2020/12/16 07:49:34;;;;;;;;;;;;;;;;;;5086796;28;19981;-87
2020/12/16 07:52:01;;;;;;;;;;;;;;;;;;5085613;28;19925;-88
2020/12/16 07:54:29;;;;;;;;;;;;;;;;;;5089495;28;19963;-87
2020/12/16 07:56:59;;;;;;;;;;;;;;;;;;5086977;28;20018;-88
2020/12/16 07:59:26;;;;;;;;;;;;;;;;;;5093380;28;20013;-88
2020/12/16 08:01:56;;;;;;;;;;;;;;;;;;5083631;28;19928;-87
2020/12/16 08:04:23;;;;;;;;;;;;;;;;;;5075680;28;19935;-87
2020/12/16 08:06:51;;;;;;;;;;;;;;;;;;5094796;28;19924;-88
2020/12/16 08:09:18;;;;;;;;;;;;;;;;;;5084413;28;20405;-88
2020/12/16 08:11:45;;;;;;;;;;;;;;;;;;5096604;28;19964;-88
2020/12/16 08:14:12;;;;;;;;;;;;;;;;;;5100924;28;19998;-88
2020/12/16 08:16:41;;;;;;;;;;;;;;;;;;5082332;28;19928;-88
2020/12/16 08:19:08;;;;;;;;;;;;;;;;;;5090655;28;20295;-88
2020/12/16 08:21:35;;;;;;;;;;;;;;;;;;5096655;28;20859;-88
2020/12/16 08:24:03;;;;;;;;;;;;;;;;;;5093596;28;19924;-88
2020/12/16 08:26:30;;;;;;;;;;;;;;;;;;5103871;28;19933;-88
2020/12/16 08:28:58;;;;;;;;;;;;;;;;;;5100326;28;19952;-88
2020/12/16 08:31:28;;;;;;;;;;;;;;;;;;5082598;28;19932;-88
2020/12/16 08:33:55;;;;;;;;;;;;;;;;;;5090288;28;20367;-87
2020/12/16 08:36:23;;;;;;;;;;;;;;;;;;5091958;28;19924;-88
2020/12/16 08:38:50;;;;;;;;;;;;;;;;;;5095457;28;19924;-87
2020/12/16 08:41:17;;;;;;;;;;;;;;;;;;5094480;28;19924;-87
2020/12/16 08:43:46;;;;;;;;;;;;;;;;;;5088507;28;19924;-88
2020/12/16 08:46:14;;;;;;;;;;;;;;;;;;5094944;28;20018;-89
2020/12/16 08:48:41;;;;;;;;;;;;;;;;;;5080980;28;19998;-89
2020/12/16 08:51:08;;;;;;;;;;;;;;;;;;5075749;28;19932;-88
2020/12/16 08:53:36;;;;;;;;;;;;;;;;;;5074191;28;19929;-89
2020/12/16 08:56:04;;;;;;;;;;;;;;;;;;5080993;28;19971;-89
2020/12/16 08:58:31;;;;;;;;;;;;;;;;;;5080605;28;20437;-89
2020/12/16 09:00:59;;;;;;;;;;;;;;;;;;5082655;28;19950;-89
2020/12/16 09:03:27;;;;;;;;;;;;;;;;;;5093180;28;19932;-89
2020/12/16 09:05:54;;;;;;;;;;;;;;;;;;5094039;28;20286;-88
2020/12/16 09:08:23;;;;;;;;;;;;;;;;;;5084375;28;19931;-88
2020/12/16 09:10:51;;;;;;;;;;;;;;;;;;5083346;28;19998;-89
2020/12/16 09:13:18;;;;;;;;;;;;;;;;;;5076250;28;19932;-88
2020/12/16 09:15:46;;;;;;;;;;;;;;;;;;5083680;28;19928;-88
2020/12/16 09:18:14;;;;;;;;;;;;;;;;;;5089896;28;20236;-88
2020/12/16 09:20:41;;;;;;;;;;;;;;;;;;5093346;28;19946;-88
2020/12/16 09:23:09;;;;;;;;;;;;;;;;;;5084476;28;20183;-88
2020/12/16 09:25:37;;;;;;;;;;;;;;;;;;5099422;28;19931;-88
2020/12/16 09:28:04;;;;;;;;;;;;;;;;;;5082206;28;19932;-88
2020/12/16 09:30:32;;;;;;;;;;;;;;;;;;5082075;28;20006;-88
2020/12/16 09:32:59;;;;;;;;;;;;;;;;;;5079847;28;19928;-88
2020/12/16 09:35:26;;;;;;;;;;;;;;;;;;5090400;28;20428;-88
2020/12/16 09:37:54;;;;;;;;;;;;;;;;;;5091098;28;19982;-89
2020/12/16 09:40:24;;;;;;;;;;;;;;;;;;5088977;28;19924;-87
2020/12/16 09:42:53;;;;;;;;;;;;;;;;;;5082931;28;20022;-87
2020/12/16 09:45:21;;;;;;;;;;;;;;;;;;5084624;28;20416;-87
2020/12/16 09:47:48;;;;;;;;;;;;;;;;;;5076796;28;19982;-87
2020/12/16 09:50:16;;;;;;;;;;;;;;;;;;5099628;28;19930;-87
2020/12/16 09:52:43;;;;;;;;;;;;;;;;;;5101111;28;20002;-86
2020/12/16 09:55:11;;;;;;;;;;;;;;;;;;5080828;28;19932;-86
2020/12/16 09:57:38;;;;;;;;;;;;;;;;;;5090032;28;20346;-86
2020/12/16 10:00:06;;;;;;;;;;;;;;;;;;5085607;28;19925;-86
2020/12/16 10:02:33;;;;;;;;;;;;;;;;;;5080964;28;19983;-86
2020/12/16 10:05:00;;;;;;;;;;;;;;;;;;5087707;28;20019;-87
2020/12/16 10:07:28;;;;;;;;;;;;;;;;;;5088349;28;20392;-87
2020/12/16 10:09:56;;;;;;;;;;;;;;;;;;5073801;28;20705;-87
2020/12/16 10:12:23;;;;;;;;;;;;;;;;;;5090311;28;19930;-87
2020/12/16 10:14:50;;;;;;;;;;;;;;;;;;5088583;28;20272;-87
2020/12/16 10:17:18;;;;;;;;;;;;;;;;;;5071415;28;19959;-87
2020/12/16 10:19:45;;;;;;;;;;;;;;;;;;5089549;28;20010;-86
2020/12/16 10:22:13;;;;;;;;;;;;;;;;;;5090674;28;19928;-87
2020/12/16 10:24:40;;;;;;;;;;;;;;;;;;5082498;28;21248;-87
2020/12/16 10:27:08;;;;;;;;;;;;;;;;;;5084003;28;19997;-87
2020/12/16 10:29:35;;;;;;;;;;;;;;;;;;5089332;28;20019;-87
2020/12/16 10:32:02;;;;;;;;;;;;;;;;;;5091095;28;19928;-87
2020/12/16 10:34:30;;;;;;;;;;;;;;;;;;5086066;28;19931;-88
2020/12/16 10:36:57;;;;;;;;;;;;;;;;;;5100191;28;20022;-88
2020/12/16 10:39:27;;;;;;;;;;;;;;;;;;5079599;28;19968;-88
2020/12/16 10:41:55;;;;;;;;;;;;;;;;;;5076185;28;19982;-87
2020/12/16 10:44:22;;;;;;;;;;;;;;;;;;5092219;28;19928;-87
2020/12/16 10:46:53;;;;;;;;;;;;;;;;;;5090572;28;19935;-87
2020/12/16 10:49:21;;;;;;;;;;;;;;;;;;5089182;28;19934;-88
2020/12/16 10:51:48;;;;;;;;;;;;;;;;;;5080154;28;19990;-87
2020/12/16 10:54:16;;;;;;;;;;;;;;;;;;5080768;28;19924;-88
2020/12/16 10:56:43;;;;;;;;;;;;;;;;;;5080275;28;19928;-88
2020/12/16 10:59:11;;;;;;;;;;;;;;;;;;5078860;28;20389;-89
2020/12/16 11:01:38;;;;;;;;;;;;;;;;;;5081467;28;19924;-89
2020/12/16 11:04:07;;;;;;;;;;;;;;;;;;5083531;28;19925;-89
2020/12/16 11:06:35;;;;;;;;;;;;;;;;;;5086174;28;19928;-87
2020/12/16 11:09:03;;;;;;;;;;;;;;;;;;5080205;28;20295;-88
2020/12/16 11:11:30;;;;;;;;;;;;;;;;;;5077382;28;19924;-89
2020/12/16 11:13:58;;;;;;;;;;;;;;;;;;5073245;28;19935;-89
2020/12/16 11:16:25;;;;;;;;;;;;;;;;;;5084376;28;19932;-89
2020/12/16 11:18:53;;;;;;;;;;;;;;;;;;5080322;28;20381;-89
2020/12/16 11:21:21;;;;;;;;;;;;;;;;;;5088596;28;19928;-90
2020/12/16 11:23:48;;;;;;;;;;;;;;;;;;5081573;28;19973;-90
2020/12/16 11:26:16;;;;;;;;;;;;;;;;;;5091802;28;19932;-90
2020/12/16 11:28:44;;;;;;;;;;;;;;;;;;5084578;28;19957;-89
2020/12/16 11:31:11;;;;;;;;;;;;;;;;;;5090639;28;19928;-89
2020/12/16 11:33:39;;;;;;;;;;;;;;;;;;5080795;28;20015;-89
2020/12/16 11:36:06;;;;;;;;;;;;;;;;;;5088179;28;19924;-90
2020/12/16 11:38:33;;;;;;;;;;;;;;;;;;5077877;28;19928;-89
2020/12/16 11:41:01;;;;;;;;;;;;;;;;;;5077269;28;19924;-89
2020/12/16 11:43:29;;;;;;;;;;;;;;;;;;5089077;28;19934;-89
2020/12/16 11:45:57;;;;;;;;;;;;;;;;;;5092680;28;20387;-90
2020/12/16 11:48:25;;;;;;;;;;;;;;;;;;5091311;28;19977;-89
2020/12/16 11:50:52;;;;;;;;;;;;;;;;;;5088647;28;19962;-89
2020/12/16 11:53:20;;;;;;;;;;;;;;;;;;5094363;28;19929;-89
2020/12/16 11:55:48;;;;;;;;;;;;;;;;;;5076452;28;20003;-89
2020/12/16 11:58:16;;;;;;;;;;;;;;;;;;5086437;28;19928;-90
2020/12/16 12:00:43;;;;;;;;;;;;;;;;;;5104171;28;20184;-89
2020/12/16 12:03:11;;;;;;;;;;;;;;;;;;5083980;28;20302;-90
2020/12/16 12:05:38;;;;;;;;;;;;;;;;;;5082212;28;19928;-89
2020/12/16 12:08:06;;;;;;;;;;;;;;;;;;5074610;28;20367;-89
2020/12/16 12:10:34;;;;;;;;;;;;;;;;;;5081969;28;19928;-89
2020/12/16 12:13:02;;;;;;;;;;;;;;;;;;5080655;28;19935;-89
2020/12/16 12:15:30;;;;;;;;;;;;;;;;;;5076791;28;19939;-90
2020/12/16 12:18:00;;;;;;;;;;;;;;;;;;5083811;28;19925;-89
2020/12/16 12:20:27;;;;;;;;;;;;;;;;;;5083756;28;19937;-90
2020/12/16 12:22:55;;;;;;;;;;;;;;;;;;5075978;28;19968;-88
2020/12/16 12:25:23;;;;;;;;;;;;;;;;;;5078719;28;19977;-88
2020/12/16 12:27:50;;;;;;;;;;;;;;;;;;5084024;28;19931;-88
2020/12/16 12:30:17;;;;;;;;;;;;;;;;;;5081867;28;19936;-88
2020/12/16 12:32:45;;;;;;;;;;;;;;;;;;5088683;28;20110;-89
2020/12/16 12:35:12;;;;;;;;;;;;;;;;;;5079592;28;20438;-88
2020/12/16 12:37:40;;;;;;;;;;;;;;;;;;5088717;28;19935;-89
2020/12/16 12:40:08;;;;;;;;;;;;;;;;;;5081851;28;20385;-90
2020/12/16 12:42:35;;;;;;;;;;;;;;;;;;5084848;28;20013;-89
2020/12/16 12:45:03;;;;;;;;;;;;;;;;;;5087167;28;19931;-88
2020/12/16 12:47:30;;;;;;;;;;;;;;;;;;5081368;28;19985;-90
2020/12/16 12:49:58;;;;;;;;;;;;;;;;;;5081819;28;19972;-89
2020/12/16 12:52:26;;;;;;;;;;;;;;;;;;5080838;28;19929;-89
2020/12/16 12:54:53;;;;;;;;;;;;;;;;;;5085806;28;19925;-89
2020/12/16 12:57:21;;;;;;;;;;;;;;;;;;5083902;28;19935;-89
2020/12/16 12:59:56;;;;;;;;;;;;;;;;;;5072095;28;19962;-89
2020/12/16 13:02:23;;;;;;;;;;;;;;;;;;5073505;28;19977;-89
2020/12/16 13:04:51;;;;;;;;;;;;;;;;;;5074638;28;20410;-89
2020/12/16 13:07:19;;;;;;;;;;;;;;;;;;5085299;28;20368;-89
2020/12/16 13:09:46;;;;;;;;;;;;;;;;;;5071378;28;19928;-88
2020/12/16 13:12:14;;;;;;;;;;;;;;;;;;5073383;28;19964;-88
2020/12/16 13:14:42;;;;;;;;;;;;;;;;;;5086471;28;19952;-88
2020/12/16 13:17:10;;;;;;;;;;;;;;;;;;5099046;28;19955;-89
2020/12/16 13:19:38;;;;;;;;;;;;;;;;;;5090702;28;19928;-89
2020/12/16 13:22:08;;;;;;;;;;;;;;;;;;5079231;28;19932;-89
2020/12/16 13:24:36;;;;;;;;;;;;;;;;;;5086943;28;19935;-89
2020/12/16 13:27:08;;;;;;;;;;;;;;;;;;5084819;28;19932;-89
2020/12/16 13:29:37;;;;;;;;;;;;;;;;;;5078997;28;19932;-89
2020/12/16 13:32:05;;;;;;;;;;;;;;;;;;5091875;28;19978;-88
2020/12/16 13:34:33;;;;;;;;;;;;;;;;;;5077598;28;19939;-89
2020/12/16 13:37:01;;;;;;;;;;;;;;;;;;5087124;28;19997;-89
2020/12/16 13:39:29;;;;;;;;;;;;;;;;;;5083649;28;19931;-89
2020/12/16 13:41:56;;;;;;;;;;;;;;;;;;5075961;28;19972;-89
2020/12/16 13:44:25;;;;;;;;;;;;;;;;;;5079155;28;19928;-89
2020/12/16 13:46:53;;;;;;;;;;;;;;;;;;5073038;28;19959;-89
2020/12/16 13:49:24;;;;;;;;;;;;;;;;;;5076342;28;19935;-89
2020/12/16 13:51:52;;;;;;;;;;;;;;;;;;5082588;28;19928;-89
2020/12/16 13:54:19;;;;;;;;;;;;;;;;;;5078737;28;20333;-90
2020/12/16 13:56:47;;;;;;;;;;;;;;;;;;5082952;28;20007;-90
2020/12/16 13:59:14;;;;;;;;;;;;;;;;;;5091309;28;20162;-90
2020/12/16 14:01:42;;;;;;;;;;;;;;;;;;5076861;28;19963;-90
2020/12/16 14:04:10;;;;;;;;;;;;;;;;;;5092052;28;19951;-90
2020/12/16 14:06:38;;;;;;;;;;;;;;;;;;5079499;28;19931;-91
2020/12/16 14:09:06;;;;;;;;;;;;;;;;;;5073493;28;19928;-90
2020/12/16 14:11:34;;;;;;;;;;;;;;;;;;5087673;28;20042;-90
2020/12/16 14:14:33;;;;;;;;;;;;;;;;;;5124998;27;19971;-61
2020/12/16 14:17:01;;;;;;;;;;;;;;;;;;5112159;28;19997;-62
2020/12/16 14:19:29;;;;;;;;;;;;;;;;;;5102987;28;20027;-62
2020/12/16 14:22:04;;;;;;;;;;;;;;;;;;5084759;28;19932;-60
2020/12/16 14:24:32;;;;;;;;;;;;;;;;;;5075753;28;20375;-60
2020/12/16 14:27:00;;;;;;;;;;;;;;;;;;5091386;28;20394;-60
2020/12/16 14:29:28;;;;;;;;;;;;;;;;;;5073969;28;19973;-60
2020/12/16 14:31:55;;;;;;;;;;;;;;;;;;5091641;28;20364;-60
2020/12/16 14:34:22;;;;;;;;;;;;;;;;;;5081762;28;19925;-62
2020/12/16 14:36:51;;;;;;;;;;;;;;;;;;5086798;28;19927;-61
2020/12/16 14:39:19;;;;;;;;;;;;;;;;;;5085476;28;19955;-61
2020/12/16 14:41:46;;;;;;;;;;;;;;;;;;5079717;28;19929;-61
2020/12/16 14:44:14;;;;;;;;;;;;;;;;;;5080904;28;19935;-62
2020/12/16 14:46:41;;;;;;;;;;;;;;;;;;5083513;28;19954;-61
2020/12/16 14:49:08;;;;;;;;;;;;;;;;;;5073500;28;19928;-61
2020/12/16 14:51:36;;;;;;;;;;;;;;;;;;5059146;28;19979;-61
2020/12/16 14:54:04;;;;;;;;;;;;;;;;;;5058412;28;20384;-62
2020/12/16 14:56:31;;;;;;;;;;;;;;;;;;5055772;28;20560;-61
2020/12/16 14:58:59;;;;;;;;;;;;;;;;;;5054801;28;19982;-61
2020/12/16 15:01:27;;;;;;;;;;;;;;;;;;5081292;28;19924;-61
2020/12/16 15:03:54;;;;;;;;;;;;;;;;;;5072759;28;19929;-61
2020/12/16 15:06:22;;;;;;;;;;;;;;;;;;5066042;28;20302;-61
2020/12/16 15:08:49;;;;;;;;;;;;;;;;;;5073136;28;19933;-61
2020/12/16 15:11:17;;;;;;;;;;;;;;;;;;5052895;28;20467;-61
2020/12/16 15:13:44;;;;;;;;;;;;;;;;;;5054479;28;20022;-61
2020/12/16 15:16:11;;;;;;;;;;;;;;;;;;5059633;28;19982;-61
2020/12/16 15:18:39;;;;;;;;;;;;;;;;;;5059102;28;19936;-61
2020/12/16 15:21:06;;;;;;;;;;;;;;;;;;5080606;28;19931;-62
2020/12/16 15:23:34;;;;;;;;;;;;;;;;;;5081057;28;19935;-61
2020/12/16 15:26:01;;;;;;;;;;;;;;;;;;5064093;28;20529;-62
2020/12/16 15:28:29;;;;;;;;;;;;;;;;;;5064879;28;19933;-62
2020/12/16 15:30:57;;;;;;;;;;;;;;;;;;5043355;28;19925;-61
2020/12/16 15:33:25;;;;;;;;;;;;;;;;;;5043287;28;19991;-61
2020/12/16 15:35:53;;;;;;;;;;;;;;;;;;5048930;28;19978;-62
2020/12/16 15:38:20;;;;;;;;;;;;;;;;;;5040443;28;19929;-61
2020/12/16 15:40:48;;;;;;;;;;;;;;;;;;5053069;28;19928;-61
2020/12/16 15:43:15;;;;;;;;;;;;;;;;;;5064892;28;19928;-62
2020/12/16 15:45:43;;;;;;;;;;;;;;;;;;5068389;28;20015;-62
2020/12/16 15:48:10;;;;;;;;;;;;;;;;;;5052981;28;19928;-61
2020/12/16 15:50:38;;;;;;;;;;;;;;;;;;5063448;28;19929;-61
2020/12/16 15:53:06;;;;;;;;;;;;;;;;;;5065887;28;20368;-61
2020/12/16 15:55:33;;;;;;;;;;;;;;;;;;5059632;28;20269;-62
2020/12/16 15:58:01;;;;;;;;;;;;;;;;;;5067574;28;19975;-62
2020/12/16 16:00:28;;;;;;;;;;;;;;;;;;5040825;28;19955;-61
2020/12/16 16:02:55;;;;;;;;;;;;;;;;;;5045733;28;19937;-61
2020/12/16 16:05:23;;;;;;;;;;;;;;;;;;5041045;28;20380;-61
2020/12/16 16:07:50;;;;;;;;;;;;;;;;;;5040297;28;20396;-62
2020/12/16 16:10:18;;;;;;;;;;;;;;;;;;5051834;28;20424;-62
2020/12/16 16:12:45;;;;;;;;;;;;;;;;;;5073016;28;20406;-62
2020/12/16 16:15:12;;;;;;;;;;;;;;;;;;5066654;28;19928;-61
2020/12/16 16:17:40;;;;;;;;;;;;;;;;;;5064300;28;19936;-61
2020/12/16 16:20:07;;;;;;;;;;;;;;;;;;5046214;28;19929;-62
2020/12/16 16:22:35;;;;;;;;;;;;;;;;;;5042666;28;20431;-62
2020/12/16 16:25:02;;;;;;;;;;;;;;;;;;5034101;28;19933;-61
2020/12/16 16:27:31;;;;;;;;;;;;;;;;;;5046094;28;19924;-62
2020/12/16 16:29:58;;;;;;;;;;;;;;;;;;5056834;28;19931;-61
2020/12/16 16:32:27;;;;;;;;;;;;;;;;;;5054801;28;19928;-61
2020/12/16 16:34:55;;;;;;;;;;;;;;;;;;5062787;28;19933;-62
2020/12/16 16:37:23;;;;;;;;;;;;;;;;;;5065265;28;19940;-61
2020/12/16 16:39:50;;;;;;;;;;;;;;;;;;5061912;28;19929;-63
2020/12/16 16:42:18;;;;;;;;;;;;;;;;;;5063524;28;19932;-62
2020/12/16 16:44:47;;;;;;;;;;;;;;;;;;5067240;28;19975;-61
2020/12/16 16:47:15;;;;;;;;;;;;;;;;;;5060286;28;19963;-62